FWKI/LLW METAR and TAF weather

Enter ICAO airport designator
Station Type Date Time Source
FWKI METAR 2018/12/12 16:00 UTC NOAA

FWKI 121600Z 09009KT 9999 TS FEW020CB SCT023 BKN080 22/19 Q1018 NOSIG


Station Type Date Time Source
FWKI Decoded METAR 2018/12/12 16:00 UTC NOAA

Lilongwe International Airport, Malawi (FWKI) 13-47S 033-46E 1229M
Dec 12, 2018 - 11:00 AM EST / 2018.12.12 1600 UTC
Wind: from the E (090 degrees) at 10 MPH (9 KT):0
Visibility: greater than 7 mile(s):0
Sky conditions: mostly cloudy
Weather: thunder; Cumulonimbus clouds observed
Temperature: 71 F (22 C)
Dew Point: 66 F (19 C)
Relative Humidity: 83%
Pressure (altimeter): 30.06 in. Hg (1018 hPa)
ob: FWKI 121600Z 09009KT 9999 TS FEW020CB SCT023 BKN080 22/19 Q1018 NOSIG
cycle: 16

Station Type Date Time Source
FWKI TAF 2018/12/12 18:12 UTC NOAA

TAF TAF FWKI 121440Z 1218/1324 06005KT 9999 FEW020CB SCT080 PROB30
TEMPO 1222/1302 9999 -RA SCT020 BKN070
BECMG 1303/1305 9999 SCT020 BKN080 PROB30
TEMPO 1308/1311 9999 -RA FEW020CB SCT022 BKN080 PROB30
TEMPO 1310/1314 9999 TS FEW023CB SCT025 BKN090


Example: see airport list